sensor_id;sensor_type;location;lat;lon;timestamp;P1;durP1;ratioP1;P2;durP2;ratioP2
36211;SDS011;22247;48.586;13.492;2022-11-15T00:02:13;8.20;;;3.97;;
36211;SDS011;22247;48.586;13.492;2022-11-15T00:04:42;9.60;;;3.53;;
36211;SDS011;22247;48.586;13.492;2022-11-15T00:07:07;6.05;;;3.33;;
36211;SDS011;22247;48.586;13.492;2022-11-15T00:09:33;6.35;;;3.58;;
36211;SDS011;22247;48.586;13.492;2022-11-15T00:11:59;8.50;;;4.15;;
36211;SDS011;22247;48.586;13.492;2022-11-15T00:14:25;5.93;;;3.83;;
36211;SDS011;22247;48.586;13.492;2022-11-15T00:16:51;6.95;;;3.65;;
36211;SDS011;22247;48.586;13.492;2022-11-15T00:19:17;5.85;;;3.45;;
36211;SDS011;22247;48.586;13.492;2022-11-15T00:21:48;6.22;;;3.17;;
36211;SDS011;22247;48.586;13.492;2022-11-15T00:24:13;7.65;;;4.65;;
36211;SDS011;22247;48.586;13.492;2022-11-15T00:26:42;8.88;;;4.13;;
36211;SDS011;22247;48.586;13.492;2022-11-15T00:29:10;9.27;;;4.00;;
36211;SDS011;22247;48.586;13.492;2022-11-15T00:31:35;6.35;;;3.83;;
36211;SDS011;22247;48.586;13.492;2022-11-15T00:34:01;8.68;;;4.22;;
36211;SDS011;22247;48.586;13.492;2022-11-15T00:36:27;8.90;;;3.67;;
36211;SDS011;22247;48.586;13.492;2022-11-15T00:38:56;7.05;;;3.70;;
36211;SDS011;22247;48.586;13.492;2022-11-15T00:41:22;6.25;;;3.35;;
36211;SDS011;22247;48.586;13.492;2022-11-15T00:43:48;6.82;;;3.53;;
36211;SDS011;22247;48.586;13.492;2022-11-15T00:46:14;6.25;;;3.90;;
36211;SDS011;22247;48.586;13.492;2022-11-15T00:48:42;8.27;;;3.50;;
36211;SDS011;22247;48.586;13.492;2022-11-15T00:51:08;7.90;;;3.88;;
36211;SDS011;22247;48.586;13.492;2022-11-15T00:53:36;6.88;;;3.38;;
36211;SDS011;22247;48.586;13.492;2022-11-15T00:56:02;9.10;;;3.60;;
36211;SDS011;22247;48.586;13.492;2022-11-15T00:58:28;5.85;;;3.17;;
36211;SDS011;22247;48.586;13.492;2022-11-15T01:00:54;8.15;;;3.90;;
36211;SDS011;22247;48.586;13.492;2022-11-15T01:03:20;6.90;;;4.15;;
36211;SDS011;22247;48.586;13.492;2022-11-15T01:05:46;8.77;;;3.72;;
36211;SDS011;22247;48.586;13.492;2022-11-15T01:08:13;6.88;;;3.80;;
36211;SDS011;22247;48.586;13.492;2022-11-15T01:10:41;7.47;;;3.92;;
36211;SDS011;22247;48.586;13.492;2022-11-15T01:13:09;9.50;;;4.57;;
36211;SDS011;22247;48.586;13.492;2022-11-15T01:15:38;7.85;;;4.03;;
36211;SDS011;22247;48.586;13.492;2022-11-15T01:18:07;6.57;;;3.70;;
36211;SDS011;22247;48.586;13.492;2022-11-15T01:20:42;7.22;;;3.92;;
36211;SDS011;22247;48.586;13.492;2022-11-15T01:23:08;8.43;;;3.75;;
36211;SDS011;22247;48.586;13.492;2022-11-15T01:25:34;6.63;;;4.00;;
36211;SDS011;22247;48.586;13.492;2022-11-15T01:28:02;7.32;;;4.18;;
36211;SDS011;22247;48.586;13.492;2022-11-15T01:30:31;8.65;;;4.75;;
36211;SDS011;22247;48.586;13.492;2022-11-15T01:32:57;8.68;;;4.18;;
36211;SDS011;22247;48.586;13.492;2022-11-15T01:35:23;10.27;;;4.57;;
36211;SDS011;22247;48.586;13.492;2022-11-15T01:37:49;8.25;;;3.75;;
36211;SDS011;22247;48.586;13.492;2022-11-15T01:40:15;7.68;;;3.55;;
36211;SDS011;22247;48.586;13.492;2022-11-15T01:42:41;6.75;;;3.63;;
36211;SDS011;22247;48.586;13.492;2022-11-15T01:45:11;6.47;;;3.47;;
36211;SDS011;22247;48.586;13.492;2022-11-15T01:47:40;6.75;;;2.55;;
36211;SDS011;22247;48.586;13.492;2022-11-15T01:50:12;4.78;;;2.67;;
36211;SDS011;22247;48.586;13.492;2022-11-15T01:52:46;9.95;;;3.50;;
36211;SDS011;22247;48.586;13.492;2022-11-15T01:55:16;7.53;;;3.63;;
36211;SDS011;22247;48.586;13.492;2022-11-15T01:57:47;9.57;;;3.97;;
36211;SDS011;22247;48.586;13.492;2022-11-15T02:00:17;7.32;;;3.40;;
36211;SDS011;22247;48.586;13.492;2022-11-15T02:02:43;5.85;;;2.92;;
36211;SDS011;22247;48.586;13.492;2022-11-15T02:05:09;7.13;;;3.63;;
36211;SDS011;22247;48.586;13.492;2022-11-15T02:07:36;10.65;;;4.35;;
36211;SDS011;22247;48.586;13.492;2022-11-15T02:10:04;21.40;;;4.47;;
36211;SDS011;22247;48.586;13.492;2022-11-15T02:12:39;6.95;;;4.15;;
36211;SDS011;22247;48.586;13.492;2022-11-15T02:15:05;8.13;;;3.80;;
36211;SDS011;22247;48.586;13.492;2022-11-15T02:28:41;5.00;;;2.20;;
36211;SDS011;22247;48.586;13.492;2022-11-15T02:36:20;6.63;;;2.95;;
36211;SDS011;22247;48.586;13.492;2022-11-15T02:42:06;8.80;;;3.70;;
36211;SDS011;22247;48.586;13.492;2022-11-15T02:45:13;4.35;;;2.55;;
36211;SDS011;22247;48.586;13.492;2022-11-15T02:47:47;6.50;;;2.72;;
36211;SDS011;22247;48.586;13.492;2022-11-15T02:50:20;6.20;;;3.55;;
36211;SDS011;22247;48.586;13.492;2022-11-15T02:52:49;8.52;;;2.83;;
36211;SDS011;22247;48.586;13.492;2022-11-15T02:55:25;6.53;;;3.53;;
36211;SDS011;22247;48.586;13.492;2022-11-15T03:00:58;9.07;;;3.92;;
36211;SDS011;22247;48.586;13.492;2022-11-15T03:11:45;7.45;;;3.78;;
36211;SDS011;22247;48.586;13.492;2022-11-15T03:14:24;5.50;;;3.13;;
36211;SDS011;22247;48.586;13.492;2022-11-15T03:16:58;4.80;;;2.83;;
36211;SDS011;22247;48.586;13.492;2022-11-15T03:22:11;6.82;;;2.83;;
36211;SDS011;22247;48.586;13.492;2022-11-15T03:24:42;5.80;;;3.08;;
36211;SDS011;22247;48.586;13.492;2022-11-15T03:27:09;4.18;;;2.47;;
36211;SDS011;22247;48.586;13.492;2022-11-15T03:29:39;6.72;;;3.25;;
36211;SDS011;22247;48.586;13.492;2022-11-15T03:32:19;5.00;;;2.88;;
36211;SDS011;22247;48.586;13.492;2022-11-15T03:37:43;7.15;;;3.17;;
36211;SDS011;22247;48.586;13.492;2022-11-15T03:40:10;6.57;;;4.45;;
36211;SDS011;22247;48.586;13.492;2022-11-15T03:45:10;5.72;;;3.20;;
36211;SDS011;22247;48.586;13.492;2022-11-15T03:47:41;5.93;;;2.80;;
36211;SDS011;22247;48.586;13.492;2022-11-15T03:50:14;7.50;;;2.90;;
36211;SDS011;22247;48.586;13.492;2022-11-15T03:52:45;6.95;;;3.00;;
36211;SDS011;22247;48.586;13.492;2022-11-15T03:55:16;11.38;;;3.13;;
36211;SDS011;22247;48.586;13.492;2022-11-15T03:57:50;8.52;;;3.50;;
36211;SDS011;22247;48.586;13.492;2022-11-15T04:00:20;5.60;;;3.17;;
36211;SDS011;22247;48.586;13.492;2022-11-15T04:02:46;6.57;;;2.90;;
36211;SDS011;22247;48.586;13.492;2022-11-15T04:05:15;7.88;;;3.00;;
36211;SDS011;22247;48.586;13.492;2022-11-15T04:07:40;9.05;;;3.42;;
36211;SDS011;22247;48.586;13.492;2022-11-15T04:10:12;6.35;;;3.28;;
36211;SDS011;22247;48.586;13.492;2022-11-15T04:12:43;6.50;;;3.85;;
36211;SDS011;22247;48.586;13.492;2022-11-15T04:15:15;6.60;;;2.97;;
36211;SDS011;22247;48.586;13.492;2022-11-15T04:17:47;9.65;;;3.15;;
36211;SDS011;22247;48.586;13.492;2022-11-15T04:22:59;16.27;;;3.30;;
36211;SDS011;22247;48.586;13.492;2022-11-15T04:25:44;7.28;;;3.22;;
36211;SDS011;22247;48.586;13.492;2022-11-15T04:28:12;27.20;;;3.90;;
36211;SDS011;22247;48.586;13.492;2022-11-15T04:30:38;53.97;;;5.03;;
36211;SDS011;22247;48.586;13.492;2022-11-15T04:33:04;16.80;;;4.45;;
36211;SDS011;22247;48.586;13.492;2022-11-15T04:35:30;11.75;;;4.13;;
36211;SDS011;22247;48.586;13.492;2022-11-15T04:37:56;25.58;;;4.13;;
36211;SDS011;22247;48.586;13.492;2022-11-15T04:40:25;34.53;;;5.30;;
36211;SDS011;22247;48.586;13.492;2022-11-15T04:42:51;35.22;;;3.65;;
36211;SDS011;22247;48.586;13.492;2022-11-15T04:45:17;39.20;;;4.68;;
36211;SDS011;22247;48.586;13.492;2022-11-15T04:47:44;53.53;;;6.90;;
36211;SDS011;22247;48.586;13.492;2022-11-15T04:50:12;8.35;;;3.22;;
36211;SDS011;22247;48.586;13.492;2022-11-15T04:52:42;107.18;;;7.22;;
36211;SDS011;22247;48.586;13.492;2022-11-15T04:55:14;75.95;;;7.38;;
36211;SDS011;22247;48.586;13.492;2022-11-15T04:57:42;236.15;;;14.52;;
36211;SDS011;22247;48.586;13.492;2022-11-15T05:00:09;142.70;;;10.68;;
36211;SDS011;22247;48.586;13.492;2022-11-15T05:02:38;189.25;;;9.65;;
36211;SDS011;22247;48.586;13.492;2022-11-15T05:05:23;90.57;;;6.03;;
36211;SDS011;22247;48.586;13.492;2022-11-15T05:07:51;125.35;;;7.20;;
36211;SDS011;22247;48.586;13.492;2022-11-15T05:10:20;82.68;;;5.05;;
36211;SDS011;22247;48.586;13.492;2022-11-15T05:12:46;25.30;;;3.65;;
36211;SDS011;22247;48.586;13.492;2022-11-15T05:15:17;65.75;;;6.60;;
36211;SDS011;22247;48.586;13.492;2022-11-15T05:17:43;59.63;;;6.22;;
36211;SDS011;22247;48.586;13.492;2022-11-15T05:20:09;75.45;;;5.63;;
36211;SDS011;22247;48.586;13.492;2022-11-15T05:22:35;71.53;;;6.38;;
36211;SDS011;22247;48.586;13.492;2022-11-15T05:25:04;71.88;;;6.82;;
36211;SDS011;22247;48.586;13.492;2022-11-15T05:27:30;34.85;;;5.82;;
36211;SDS011;22247;48.586;13.492;2022-11-15T05:29:56;19.58;;;4.15;;
36211;SDS011;22247;48.586;13.492;2022-11-15T05:32:22;66.30;;;6.78;;
36211;SDS011;22247;48.586;13.492;2022-11-15T05:34:48;136.02;;;9.25;;
36211;SDS011;22247;48.586;13.492;2022-11-15T05:37:15;20.65;;;4.63;;
36211;SDS011;22247;48.586;13.492;2022-11-15T05:39:43;35.78;;;4.28;;
36211;SDS011;22247;48.586;13.492;2022-11-15T05:42:10;79.57;;;5.68;;
36211;SDS011;22247;48.586;13.492;2022-11-15T05:44:39;50.53;;;5.07;;
36211;SDS011;22247;48.586;13.492;2022-11-15T05:47:14;114.32;;;7.72;;
36211;SDS011;22247;48.586;13.492;2022-11-15T05:49:45;25.98;;;4.22;;
36211;SDS011;22247;48.586;13.492;2022-11-15T05:52:20;55.60;;;5.78;;
36211;SDS011;22247;48.586;13.492;2022-11-15T05:54:53;59.50;;;4.88;;
36211;SDS011;22247;48.586;13.492;2022-11-15T05:57:25;35.72;;;4.75;;
36211;SDS011;22247;48.586;13.492;2022-11-15T05:59:52;45.75;;;5.47;;
36211;SDS011;22247;48.586;13.492;2022-11-15T06:02:24;12.50;;;3.53;;
36211;SDS011;22247;48.586;13.492;2022-11-15T06:04:50;20.00;;;3.63;;
36211;SDS011;22247;48.586;13.492;2022-11-15T06:07:15;27.15;;;4.50;;
36211;SDS011;22247;48.586;13.492;2022-11-15T06:09:41;15.93;;;3.45;;
36211;SDS011;22247;48.586;13.492;2022-11-15T06:12:10;45.53;;;4.32;;
36211;SDS011;22247;48.586;13.492;2022-11-15T06:14:35;25.60;;;4.30;;
36211;SDS011;22247;48.586;13.492;2022-11-15T06:17:01;20.25;;;3.88;;
36211;SDS011;22247;48.586;13.492;2022-11-15T06:19:30;61.67;;;4.97;;
36211;SDS011;22247;48.586;13.492;2022-11-15T06:21:59;17.42;;;3.25;;
36211;SDS011;22247;48.586;13.492;2022-11-15T06:24:27;75.70;;;7.68;;
36211;SDS011;22247;48.586;13.492;2022-11-15T06:26:53;8.05;;;3.08;;
36211;SDS011;22247;48.586;13.492;2022-11-15T06:29:21;17.20;;;3.38;;
36211;SDS011;22247;48.586;13.492;2022-11-15T06:31:47;11.27;;;2.58;;
36211;SDS011;22247;48.586;13.492;2022-11-15T06:34:13;110.05;;;9.07;;
36211;SDS011;22247;48.586;13.492;2022-11-15T06:36:41;60.38;;;4.95;;
36211;SDS011;22247;48.586;13.492;2022-11-15T06:39:07;46.28;;;4.43;;
36211;SDS011;22247;48.586;13.492;2022-11-15T06:41:35;68.65;;;4.93;;
36211;SDS011;22247;48.586;13.492;2022-11-15T06:44:03;41.08;;;3.33;;
36211;SDS011;22247;48.586;13.492;2022-11-15T06:46:31;56.28;;;5.22;;
36211;SDS011;22247;48.586;13.492;2022-11-15T06:48:57;79.18;;;6.88;;
36211;SDS011;22247;48.586;13.492;2022-11-15T06:51:23;144.35;;;8.27;;
36211;SDS011;22247;48.586;13.492;2022-11-15T06:53:49;76.90;;;5.13;;
36211;SDS011;22247;48.586;13.492;2022-11-15T06:56:15;77.10;;;7.22;;
36211;SDS011;22247;48.586;13.492;2022-11-15T06:58:43;7.05;;;2.65;;
36211;SDS011;22247;48.586;13.492;2022-11-15T07:01:10;58.15;;;4.60;;
36211;SDS011;22247;48.586;13.492;2022-11-15T07:03:40;19.02;;;2.78;;
36211;SDS011;22247;48.586;13.492;2022-11-15T07:06:11;27.40;;;3.75;;
36211;SDS011;22247;48.586;13.492;2022-11-15T07:08:37;17.13;;;2.63;;
36211;SDS011;22247;48.586;13.492;2022-11-15T07:11:09;106.50;;;8.63;;
36211;SDS011;22247;48.586;13.492;2022-11-15T07:13:37;87.43;;;5.03;;
36211;SDS011;22247;48.586;13.492;2022-11-15T07:16:03;22.67;;;3.05;;
36211;SDS011;22247;48.586;13.492;2022-11-15T07:18:33;38.22;;;3.92;;
36211;SDS011;22247;48.586;13.492;2022-11-15T07:21:05;104.03;;;6.10;;
36211;SDS011;22247;48.586;13.492;2022-11-15T07:23:38;148.80;;;9.52;;
36211;SDS011;22247;48.586;13.492;2022-11-15T07:26:05;94.22;;;6.50;;
36211;SDS011;22247;48.586;13.492;2022-11-15T07:28:32;20.23;;;3.33;;
36211;SDS011;22247;48.586;13.492;2022-11-15T07:30:57;163.07;;;10.70;;
36211;SDS011;22247;48.586;13.492;2022-11-15T07:33:23;209.98;;;9.82;;
36211;SDS011;22247;48.586;13.492;2022-11-15T07:35:49;292.92;;;17.83;;
36211;SDS011;22247;48.586;13.492;2022-11-15T07:38:15;151.40;;;13.85;;
36211;SDS011;22247;48.586;13.492;2022-11-15T07:40:44;256.70;;;18.58;;
36211;SDS011;22247;48.586;13.492;2022-11-15T07:43:10;179.70;;;12.40;;
36211;SDS011;22247;48.586;13.492;2022-11-15T07:45:40;110.20;;;6.63;;
36211;SDS011;22247;48.586;13.492;2022-11-15T07:48:09;19.70;;;3.78;;
36211;SDS011;22247;48.586;13.492;2022-11-15T07:50:35;86.72;;;6.15;;
36211;SDS011;22247;48.586;13.492;2022-11-15T07:53:01;234.30;;;12.60;;
36211;SDS011;22247;48.586;13.492;2022-11-15T07:55:29;188.82;;;8.75;;
36211;SDS011;22247;48.586;13.492;2022-11-15T07:58:04;285.35;;;12.05;;
36211;SDS011;22247;48.586;13.492;2022-11-15T08:00:33;235.77;;;14.07;;
36211;SDS011;22247;48.586;13.492;2022-11-15T08:03:20;87.40;;;5.78;;
36211;SDS011;22247;48.586;13.492;2022-11-15T08:05:53;86.78;;;8.07;;
36211;SDS011;22247;48.586;13.492;2022-11-15T08:08:21;207.43;;;18.13;;
36211;SDS011;22247;48.586;13.492;2022-11-15T08:10:47;174.20;;;11.20;;
36211;SDS011;22247;48.586;13.492;2022-11-15T08:13:13;135.95;;;8.18;;
36211;SDS011;22247;48.586;13.492;2022-11-15T08:15:39;117.60;;;7.15;;
36211;SDS011;22247;48.586;13.492;2022-11-15T08:18:06;112.35;;;6.40;;
36211;SDS011;22247;48.586;13.492;2022-11-15T08:20:38;95.38;;;6.75;;
36211;SDS011;22247;48.586;13.492;2022-11-15T08:23:04;152.23;;;7.80;;
36211;SDS011;22247;48.586;13.492;2022-11-15T08:25:31;167.85;;;10.23;;
36211;SDS011;22247;48.586;13.492;2022-11-15T08:28:03;105.25;;;7.82;;
36211;SDS011;22247;48.586;13.492;2022-11-15T08:30:30;95.03;;;6.57;;
36211;SDS011;22247;48.586;13.492;2022-11-15T08:32:57;66.40;;;4.50;;
36211;SDS011;22247;48.586;13.492;2022-11-15T08:35:23;159.90;;;11.05;;
36211;SDS011;22247;48.586;13.492;2022-11-15T08:37:50;231.23;;;11.07;;
36211;SDS011;22247;48.586;13.492;2022-11-15T08:40:17;159.00;;;8.82;;
36211;SDS011;22247;48.586;13.492;2022-11-15T08:42:45;114.70;;;9.40;;
36211;SDS011;22247;48.586;13.492;2022-11-15T08:45:11;73.43;;;6.57;;
36211;SDS011;22247;48.586;13.492;2022-11-15T08:47:37;116.05;;;8.07;;
36211;SDS011;22247;48.586;13.492;2022-11-15T08:50:05;83.80;;;5.47;;
36211;SDS011;22247;48.586;13.492;2022-11-15T08:52:34;60.90;;;4.82;;
36211;SDS011;22247;48.586;13.492;2022-11-15T08:54:59;54.78;;;4.40;;
36211;SDS011;22247;48.586;13.492;2022-11-15T08:57:27;121.30;;;7.95;;
36211;SDS011;22247;48.586;13.492;2022-11-15T08:59:55;54.63;;;4.50;;
36211;SDS011;22247;48.586;13.492;2022-11-15T09:02:21;33.95;;;6.50;;
36211;SDS011;22247;48.586;13.492;2022-11-15T09:04:49;8.82;;;4.00;;
36211;SDS011;22247;48.586;13.492;2022-11-15T09:07:17;7.50;;;3.90;;
36211;SDS011;22247;48.586;13.492;2022-11-15T09:09:43;6.65;;;4.07;;
36211;SDS011;22247;48.586;13.492;2022-11-15T09:12:10;8.27;;;4.80;;
36211;SDS011;22247;48.586;13.492;2022-11-15T09:14:36;7.18;;;4.10;;
36211;SDS011;22247;48.586;13.492;2022-11-15T09:17:06;11.65;;;6.05;;
36211;SDS011;22247;48.586;13.492;2022-11-15T09:19:33;8.67;;;4.23;;
36211;SDS011;22247;48.586;13.492;2022-11-15T09:22:05;9.00;;;5.10;;
36211;SDS011;22247;48.586;13.492;2022-11-15T09:24:32;10.05;;;5.60;;
36211;SDS011;22247;48.586;13.492;2022-11-15T09:26:57;8.75;;;5.38;;
36211;SDS011;22247;48.586;13.492;2022-11-15T09:29:23;8.38;;;4.80;;
36211;SDS011;22247;48.586;13.492;2022-11-15T09:31:51;7.20;;;4.78;;
36211;SDS011;22247;48.586;13.492;2022-11-15T09:34:17;9.50;;;4.63;;
36211;SDS011;22247;48.586;13.492;2022-11-15T09:36:45;6.68;;;4.10;;
36211;SDS011;22247;48.586;13.492;2022-11-15T09:39:14;6.47;;;4.18;;
36211;SDS011;22247;48.586;13.492;2022-11-15T09:44:27;10.57;;;6.07;;
36211;SDS011;22247;48.586;13.492;2022-11-15T09:50:07;13.60;;;5.70;;
36211;SDS011;22247;48.586;13.492;2022-11-15T09:52:41;9.35;;;5.30;;
36211;SDS011;22247;48.586;13.492;2022-11-15T09:55:10;10.23;;;5.50;;
36211;SDS011;22247;48.586;13.492;2022-11-15T09:57:57;11.07;;;6.18;;
36211;SDS011;22247;48.586;13.492;2022-11-15T10:00:51;7.63;;;4.68;;
36211;SDS011;22247;48.586;13.492;2022-11-15T10:03:25;6.13;;;4.32;;
36211;SDS011;22247;48.586;13.492;2022-11-15T10:05:59;8.00;;;5.13;;
36211;SDS011;22247;48.586;13.492;2022-11-15T10:11:16;9.48;;;5.70;;
36211;SDS011;22247;48.586;13.492;2022-11-15T10:13:47;9.27;;;4.35;;
36211;SDS011;22247;48.586;13.492;2022-11-15T10:22:00;8.60;;;4.72;;
36211;SDS011;22247;48.586;13.492;2022-11-15T10:24:47;7.85;;;4.45;;
36211;SDS011;22247;48.586;13.492;2022-11-15T10:27:17;9.20;;;4.88;;
36211;SDS011;22247;48.586;13.492;2022-11-15T10:29:45;13.73;;;6.65;;
36211;SDS011;22247;48.586;13.492;2022-11-15T10:32:13;15.80;;;7.22;;
36211;SDS011;22247;48.586;13.492;2022-11-15T10:34:40;13.32;;;7.15;;
36211;SDS011;22247;48.586;13.492;2022-11-15T10:37:06;7.88;;;5.65;;
36211;SDS011;22247;48.586;13.492;2022-11-15T10:39:32;14.77;;;5.75;;
36211;SDS011;22247;48.586;13.492;2022-11-15T10:42:48;10.17;;;6.07;;
36211;SDS011;22247;48.586;13.492;2022-11-15T10:44:53;15.10;;;7.90;;
36211;SDS011;22247;48.586;13.492;2022-11-15T10:47:22;12.68;;;7.40;;
36211;SDS011;22247;48.586;13.492;2022-11-15T10:49:55;16.33;;;9.18;;
36211;SDS011;22247;48.586;13.492;2022-11-15T10:52:22;14.07;;;8.18;;
36211;SDS011;22247;48.586;13.492;2022-11-15T10:57:28;20.35;;;8.40;;
36211;SDS011;22247;48.586;13.492;2022-11-15T11:00:02;13.88;;;7.93;;
36211;SDS011;22247;48.586;13.492;2022-11-15T11:05:39;16.92;;;9.25;;
36211;SDS011;22247;48.586;13.492;2022-11-15T11:13:28;13.30;;;8.02;;
36211;SDS011;22247;48.586;13.492;2022-11-15T11:21:22;13.65;;;8.73;;
36211;SDS011;22247;48.586;13.492;2022-11-15T11:23:59;11.25;;;8.02;;
36211;SDS011;22247;48.586;13.492;2022-11-15T11:26:36;13.32;;;8.57;;
36211;SDS011;22247;48.586;13.492;2022-11-15T11:37:35;14.23;;;8.70;;
36211;SDS011;22247;48.586;13.492;2022-11-15T11:45:44;10.60;;;6.82;;
36211;SDS011;22247;48.586;13.492;2022-11-15T11:51:16;13.85;;;8.95;;
36211;SDS011;22247;48.586;13.492;2022-11-15T11:56:31;12.43;;;8.80;;
36211;SDS011;22247;48.586;13.492;2022-11-15T11:59:46;13.48;;;8.98;;
36211;SDS011;22247;48.586;13.492;2022-11-15T12:02:15;17.67;;;9.98;;
36211;SDS011;22247;48.586;13.492;2022-11-15T12:05:08;17.77;;;9.57;;
36211;SDS011;22247;48.586;13.492;2022-11-15T12:07:35;17.92;;;9.38;;
36211;SDS011;22247;48.586;13.492;2022-11-15T12:10:22;18.75;;;10.55;;
36211;SDS011;22247;48.586;13.492;2022-11-15T12:13:07;16.20;;;10.23;;
36211;SDS011;22247;48.586;13.492;2022-11-15T12:15:52;18.15;;;10.95;;
36211;SDS011;22247;48.586;13.492;2022-11-15T12:18:24;20.00;;;10.80;;
36211;SDS011;22247;48.586;13.492;2022-11-15T12:21:01;17.98;;;10.95;;
36211;SDS011;22247;48.586;13.492;2022-11-15T12:23:45;20.90;;;10.90;;
36211;SDS011;22247;48.586;13.492;2022-11-15T12:26:21;15.55;;;10.80;;
36211;SDS011;22247;48.586;13.492;2022-11-15T12:34:00;18.50;;;10.55;;
36211;SDS011;22247;48.586;13.492;2022-11-15T12:39:06;17.83;;;10.93;;
36211;SDS011;22247;48.586;13.492;2022-11-15T12:41:37;19.50;;;12.27;;
36211;SDS011;22247;48.586;13.492;2022-11-15T12:44:55;23.17;;;11.48;;
36211;SDS011;22247;48.586;13.492;2022-11-15T12:47:21;20.87;;;12.53;;
36211;SDS011;22247;48.586;13.492;2022-11-15T12:49:49;21.42;;;11.00;;
36211;SDS011;22247;48.586;13.492;2022-11-15T12:52:15;20.10;;;11.68;;
36211;SDS011;22247;48.586;13.492;2022-11-15T13:04:48;22.00;;;11.98;;
36211;SDS011;22247;48.586;13.492;2022-11-15T13:07:54;19.38;;;11.27;;
36211;SDS011;22247;48.586;13.492;2022-11-15T13:22:51;18.70;;;10.60;;
36211;SDS011;22247;48.586;13.492;2022-11-15T13:30:40;15.50;;;9.40;;
36211;SDS011;22247;48.586;13.492;2022-11-15T13:36:06;16.48;;;10.00;;
36211;SDS011;22247;48.586;13.492;2022-11-15T13:38:44;17.77;;;11.32;;
36211;SDS011;22247;48.586;13.492;2022-11-15T13:41:23;21.17;;;10.70;;
36211;SDS011;22247;48.586;13.492;2022-11-15T13:43:51;17.38;;;10.57;;
36211;SDS011;22247;48.586;13.492;2022-11-15T13:48:51;20.25;;;11.48;;
36211;SDS011;22247;48.586;13.492;2022-11-15T13:51:47;23.42;;;11.75;;
36211;SDS011;22247;48.586;13.492;2022-11-15T13:57:03;20.38;;;12.48;;
36211;SDS011;22247;48.586;13.492;2022-11-15T13:59:36;25.30;;;12.50;;
36211;SDS011;22247;48.586;13.492;2022-11-15T14:02:13;20.20;;;11.88;;
36211;SDS011;22247;48.586;13.492;2022-11-15T14:04:53;22.17;;;11.77;;
36211;SDS011;22247;48.586;13.492;2022-11-15T14:07:22;21.10;;;12.70;;
36211;SDS011;22247;48.586;13.492;2022-11-15T14:09:55;25.60;;;12.95;;
36211;SDS011;22247;48.586;13.492;2022-11-15T14:14:56;25.75;;;13.23;;
36211;SDS011;22247;48.586;13.492;2022-11-15T14:19:54;23.63;;;12.70;;
36211;SDS011;22247;48.586;13.492;2022-11-15T14:24:50;25.83;;;14.50;;
36211;SDS011;22247;48.586;13.492;2022-11-15T14:27:29;23.80;;;13.88;;
36211;SDS011;22247;48.586;13.492;2022-11-15T14:29:54;22.35;;;12.27;;
36211;SDS011;22247;48.586;13.492;2022-11-15T14:32:21;27.65;;;15.68;;
36211;SDS011;22247;48.586;13.492;2022-11-15T14:34:48;28.15;;;16.10;;
36211;SDS011;22247;48.586;13.492;2022-11-15T14:37:31;27.30;;;14.38;;
36211;SDS011;22247;48.586;13.492;2022-11-15T14:39:59;27.67;;;14.70;;
36211;SDS011;22247;48.586;13.492;2022-11-15T14:42:30;26.23;;;15.05;;
36211;SDS011;22247;48.586;13.492;2022-11-15T14:44:57;24.42;;;14.52;;
36211;SDS011;22247;48.586;13.492;2022-11-15T14:47:23;28.55;;;14.15;;
36211;SDS011;22247;48.586;13.492;2022-11-15T14:49:49;29.48;;;15.15;;
36211;SDS011;22247;48.586;13.492;2022-11-15T14:54:59;27.63;;;14.77;;
36211;SDS011;22247;48.586;13.492;2022-11-15T14:57:28;25.98;;;14.70;;
36211;SDS011;22247;48.586;13.492;2022-11-15T14:59:55;26.95;;;14.68;;
36211;SDS011;22247;48.586;13.492;2022-11-15T15:02:22;30.27;;;15.40;;
36211;SDS011;22247;48.586;13.492;2022-11-15T15:04:51;27.48;;;15.02;;
36211;SDS011;22247;48.586;13.492;2022-11-15T15:07:18;27.83;;;15.90;;
36211;SDS011;22247;48.586;13.492;2022-11-15T15:09:46;25.52;;;14.10;;
36211;SDS011;22247;48.586;13.492;2022-11-15T15:12:17;25.98;;;15.15;;
36211;SDS011;22247;48.586;13.492;2022-11-15T15:14:46;33.88;;;15.90;;
36211;SDS011;22247;48.586;13.492;2022-11-15T15:17:14;29.48;;;15.90;;
36211;SDS011;22247;48.586;13.492;2022-11-15T15:19:40;28.95;;;15.07;;
36211;SDS011;22247;48.586;13.492;2022-11-15T15:22:15;30.73;;;15.35;;
36211;SDS011;22247;48.586;13.492;2022-11-15T15:24:43;31.02;;;16.52;;
36211;SDS011;22247;48.586;13.492;2022-11-15T15:27:09;31.17;;;15.77;;
36211;SDS011;22247;48.586;13.492;2022-11-15T15:29:35;26.83;;;14.93;;
36211;SDS011;22247;48.586;13.492;2022-11-15T15:32:06;27.65;;;15.52;;
36211;SDS011;22247;48.586;13.492;2022-11-15T15:34:35;30.80;;;14.73;;
36211;SDS011;22247;48.586;13.492;2022-11-15T15:39:50;29.52;;;16.10;;
36211;SDS011;22247;48.586;13.492;2022-11-15T15:42:19;30.83;;;15.40;;
36211;SDS011;22247;48.586;13.492;2022-11-15T15:44:48;30.85;;;16.55;;
36211;SDS011;22247;48.586;13.492;2022-11-15T15:47:15;33.50;;;16.83;;
36211;SDS011;22247;48.586;13.492;2022-11-15T15:49:43;29.60;;;15.68;;
36211;SDS011;22247;48.586;13.492;2022-11-15T15:52:09;28.05;;;15.18;;
36211;SDS011;22247;48.586;13.492;2022-11-15T15:54:34;27.40;;;14.45;;
36211;SDS011;22247;48.586;13.492;2022-11-15T15:57:03;24.20;;;13.80;;
36211;SDS011;22247;48.586;13.492;2022-11-15T15:59:29;29.17;;;16.42;;
36211;SDS011;22247;48.586;13.492;2022-11-15T16:01:56;33.83;;;16.77;;
36211;SDS011;22247;48.586;13.492;2022-11-15T16:04:22;30.70;;;15.07;;
36211;SDS011;22247;48.586;13.492;2022-11-15T16:06:48;25.48;;;13.23;;
36211;SDS011;22247;48.586;13.492;2022-11-15T16:09:17;24.63;;;13.25;;
36211;SDS011;22247;48.586;13.492;2022-11-15T16:12:06;22.75;;;11.98;;
36211;SDS011;22247;48.586;13.492;2022-11-15T16:14:32;26.20;;;14.07;;
36211;SDS011;22247;48.586;13.492;2022-11-15T16:16:57;30.08;;;14.77;;
36211;SDS011;22247;48.586;13.492;2022-11-15T16:19:26;25.55;;;13.07;;
36211;SDS011;22247;48.586;13.492;2022-11-15T16:21:54;26.48;;;13.13;;
36211;SDS011;22247;48.586;13.492;2022-11-15T16:24:20;30.48;;;14.98;;
36211;SDS011;22247;48.586;13.492;2022-11-15T16:26:47;25.33;;;13.32;;
36211;SDS011;22247;48.586;13.492;2022-11-15T16:29:13;32.33;;;15.35;;
36211;SDS011;22247;48.586;13.492;2022-11-15T16:31:44;31.20;;;15.20;;
36211;SDS011;22247;48.586;13.492;2022-11-15T16:34:09;28.90;;;15.05;;
36211;SDS011;22247;48.586;13.492;2022-11-15T16:36:35;30.33;;;14.82;;
36211;SDS011;22247;48.586;13.492;2022-11-15T16:39:04;31.15;;;16.17;;
36211;SDS011;22247;48.586;13.492;2022-11-15T16:41:30;32.45;;;16.90;;
36211;SDS011;22247;48.586;13.492;2022-11-15T16:43:58;34.30;;;15.75;;
36211;SDS011;22247;48.586;13.492;2022-11-15T16:46:26;32.25;;;16.73;;
36211;SDS011;22247;48.586;13.492;2022-11-15T16:48:52;34.22;;;17.23;;
36211;SDS011;22247;48.586;13.492;2022-11-15T16:51:23;31.70;;;16.25;;
36211;SDS011;22247;48.586;13.492;2022-11-15T16:53:49;38.03;;;16.75;;
36211;SDS011;22247;48.586;13.492;2022-11-15T16:58:58;35.33;;;16.20;;
36211;SDS011;22247;48.586;13.492;2022-11-15T17:01:30;35.40;;;15.25;;
36211;SDS011;22247;48.586;13.492;2022-11-15T17:03:57;31.50;;;15.35;;
36211;SDS011;22247;48.586;13.492;2022-11-15T17:06:39;38.72;;;17.75;;
36211;SDS011;22247;48.586;13.492;2022-11-15T17:09:07;37.10;;;17.33;;